This is the latest recevied weather packets stored in our database for station/object K1ABC. If no packets are shown the sender has not sent any weather packets the latest 10 day(s).
| Time | Temp. | Humidity | Pressure | Rain* | Wind** | Luminosity | Snow |
|---|---|---|---|---|---|---|---|
| 1777830635 | 11.11° C | 55% | 1005.2 hPa | 0 mm | - | - | - |
| 1777830066 | 11.11° C | 65% | 1005.2 hPa | 0 mm | - | - | - |
| 1777829253 | 10° C | 67% | 1005.2 hPa | 0 mm | - | - | - |
| 1777826173 | 8.33° C | 73% | 1005.6 hPa | 0 mm | - | - | - |
| 1777824960 | 8.89° C | 77% | 1005.6 hPa | 0 mm | - | - | - |
| 1777824637 | 8.89° C | 74% | 1005.5 hPa | 0 mm | - | - | - |
| 1777823820 | 8.89° C | 76% | 1005.6 hPa | 0 mm | - | - | - |
| 1777823500 | 8.89° C | 77% | 1005.4 hPa | 0 mm | - | - | - |
| 1777823175 | 8.89° C | 78% | 1005.4 hPa | 0 mm | - | - | - |
| 1777822464 | 8.89° C | 80% | 1005.4 hPa | 0 mm | - | - | - |
| 1777820876 | 8.33° C | 78% | 1005.4 hPa | 0 mm | - | - | - |
| 1777819296 | 7.78° C | 86% | 1005.5 hPa | 0 mm | - | - | - |
| 1777818727 | 7.22° C | 87% | 1005.5 hPa | 0 mm | - | - | - |
| 1777816398 | 8.33° C | 83% | 1005.8 hPa | 0 mm | - | - | - |
| 1777816202 | 8.89° C | 80% | 1005.7 hPa | 0 mm | - | - | - |
| 1777815885 | 8.89° C | 80% | 1005.8 hPa | 0 mm | - | - | - |
| 1777815561 | 8.89° C | 79% | 1005.7 hPa | 0 mm | - | - | - |
| 1777814744 | 8.89° C | 78% | 1005.8 hPa | 0 mm | - | - | - |
| 1777814293 | 8.89° C | 80% | 1005.9 hPa | 0 mm | - | - | - |
| 1777813328 | 8.89° C | 81% | 1005.9 hPa | 0 mm | - | - | - |
| 1777810754 | 7.22° C | 90% | 1006.2 hPa | 0 mm | - | - | - |
| 1777809563 | 6.67° C | 92% | 1006.4 hPa | 0 mm | - | - | - |
| 1777808107 | 6.11° C | 93% | 1006.6 hPa | 0 mm | - | - | - |
| 1777807407 | 6.11° C | 93% | 1006.6 hPa | 0 mm | - | - | - |
| 1777805812 | 6.11° C | 93% | 1006.7 hPa | 0 mm | - | - | - |
* Rain latest hour (hover to see other rain measurements)
** Current wind speed in m/s (hover to see current wind gust speed)